sensor_id;sensor_type;location;lat;lon;timestamp;temperature;humidity
20946;DHT22;10632;51.276;7.116;2023-02-13T00:01:04;7.30;99.90
20946;DHT22;10632;51.276;7.116;2023-02-13T00:03:33;7.20;99.90
20946;DHT22;10632;51.276;7.116;2023-02-13T00:06:00;7.30;99.90
20946;DHT22;10632;51.276;7.116;2023-02-13T00:08:30;7.20;99.90
20946;DHT22;10632;51.276;7.116;2023-02-13T00:10:57;7.20;99.90
20946;DHT22;10632;51.276;7.116;2023-02-13T00:13:24;7.20;99.90
20946;DHT22;10632;51.276;7.116;2023-02-13T00:15:56;7.20;99.90
20946;DHT22;10632;51.276;7.116;2023-02-13T00:18:25;7.20;99.90
20946;DHT22;10632;51.276;7.116;2023-02-13T00:21:02;7.10;99.90
20946;DHT22;10632;51.276;7.116;2023-02-13T00:23:31;7.10;99.90
20946;DHT22;10632;51.276;7.116;2023-02-13T00:25:58;7.20;99.90
20946;DHT22;10632;51.276;7.116;2023-02-13T00:28:26;7.10;99.90
20946;DHT22;10632;51.276;7.116;2023-02-13T00:31:01;7.10;99.90
20946;DHT22;10632;51.276;7.116;2023-02-13T00:33:30;7.10;99.90
20946;DHT22;10632;51.276;7.116;2023-02-13T00:36:02;7.10;99.90
20946;DHT22;10632;51.276;7.116;2023-02-13T00:38:30;7.10;99.90
20946;DHT22;10632;51.276;7.116;2023-02-13T00:40:57;7.00;99.90
20946;DHT22;10632;51.276;7.116;2023-02-13T00:43:24;7.00;99.90
20946;DHT22;10632;51.276;7.116;2023-02-13T00:45:51;7.00;99.90
20946;DHT22;10632;51.276;7.116;2023-02-13T00:48:18;7.00;99.90
20946;DHT22;10632;51.276;7.116;2023-02-13T00:50:53;7.00;99.90
20946;DHT22;10632;51.276;7.116;2023-02-13T00:53:24;7.00;99.90
20946;DHT22;10632;51.276;7.116;2023-02-13T00:55:52;7.00;99.90
20946;DHT22;10632;51.276;7.116;2023-02-13T00:58:21;6.90;99.90
20946;DHT22;10632;51.276;7.116;2023-02-13T01:00:49;7.00;99.90
20946;DHT22;10632;51.276;7.116;2023-02-13T01:03:17;7.00;99.90
20946;DHT22;10632;51.276;7.116;2023-02-13T01:05:48;6.90;99.90
20946;DHT22;10632;51.276;7.116;2023-02-13T01:08:17;7.00;99.90
20946;DHT22;10632;51.276;7.116;2023-02-13T01:10:46;7.00;99.90
20946;DHT22;10632;51.276;7.116;2023-02-13T01:13:15;6.90;99.90
20946;DHT22;10632;51.276;7.116;2023-02-13T01:15:43;7.00;99.90
20946;DHT22;10632;51.276;7.116;2023-02-13T01:18:11;6.90;99.90
20946;DHT22;10632;51.276;7.116;2023-02-13T01:20:39;7.00;99.90
20946;DHT22;10632;51.276;7.116;2023-02-13T01:23:07;7.00;99.90
20946;DHT22;10632;51.276;7.116;2023-02-13T01:25:36;6.90;99.90
20946;DHT22;10632;51.276;7.116;2023-02-13T01:28:04;6.90;99.90
20946;DHT22;10632;51.276;7.116;2023-02-13T01:30:31;6.90;99.90
20946;DHT22;10632;51.276;7.116;2023-02-13T01:32:58;6.90;99.90
20946;DHT22;10632;51.276;7.116;2023-02-13T01:35:25;6.90;99.90
20946;DHT22;10632;51.276;7.116;2023-02-13T01:37:52;6.90;99.90
20946;DHT22;10632;51.276;7.116;2023-02-13T01:40:21;6.90;99.90
20946;DHT22;10632;51.276;7.116;2023-02-13T01:42:48;6.90;99.90
20946;DHT22;10632;51.276;7.116;2023-02-13T01:45:22;6.80;99.90
20946;DHT22;10632;51.276;7.116;2023-02-13T01:47:52;6.90;99.90
20946;DHT22;10632;51.276;7.116;2023-02-13T01:50:23;6.80;99.90
20946;DHT22;10632;51.276;7.116;2023-02-13T01:52:56;6.80;99.90
20946;DHT22;10632;51.276;7.116;2023-02-13T01:55:28;6.80;99.90
20946;DHT22;10632;51.276;7.116;2023-02-13T01:58:01;6.80;99.90
20946;DHT22;10632;51.276;7.116;2023-02-13T02:00:30;6.80;99.90
20946;DHT22;10632;51.276;7.116;2023-02-13T02:03:01;6.80;99.90
20946;DHT22;10632;51.276;7.116;2023-02-13T02:05:31;6.80;99.90
20946;DHT22;10632;51.276;7.116;2023-02-13T02:08:00;6.70;99.90
20946;DHT22;10632;51.276;7.116;2023-02-13T02:10:30;6.70;99.90
20946;DHT22;10632;51.276;7.116;2023-02-13T02:13:00;6.70;99.90
20946;DHT22;10632;51.276;7.116;2023-02-13T02:15:28;6.60;99.90
20946;DHT22;10632;51.276;7.116;2023-02-13T02:17:56;6.70;99.90
20946;DHT22;10632;51.276;7.116;2023-02-13T02:20:36;6.70;99.90
20946;DHT22;10632;51.276;7.116;2023-02-13T02:32:41;6.50;99.90
20946;DHT22;10632;51.276;7.116;2023-02-13T02:35:21;6.50;99.90
20946;DHT22;10632;51.276;7.116;2023-02-13T02:38:00;6.40;99.90
20946;DHT22;10632;51.276;7.116;2023-02-13T02:40:35;6.40;99.90
20946;DHT22;10632;51.276;7.116;2023-02-13T02:43:27;6.40;99.90
20946;DHT22;10632;51.276;7.116;2023-02-13T02:46:02;6.30;99.90
20946;DHT22;10632;51.276;7.116;2023-02-13T02:48:39;6.40;99.90
20946;DHT22;10632;51.276;7.116;2023-02-13T02:51:31;6.30;99.90
20946;DHT22;10632;51.276;7.116;2023-02-13T02:54:08;6.30;99.90
20946;DHT22;10632;51.276;7.116;2023-02-13T02:56:55;6.30;99.90
20946;DHT22;10632;51.276;7.116;2023-02-13T02:59:23;6.30;99.90
20946;DHT22;10632;51.276;7.116;2023-02-13T03:02:09;6.30;99.90
20946;DHT22;10632;51.276;7.116;2023-02-13T03:04:56;6.30;99.90
20946;DHT22;10632;51.276;7.116;2023-02-13T03:07:43;6.20;99.90
20946;DHT22;10632;51.276;7.116;2023-02-13T03:10:17;6.30;99.90
20946;DHT22;10632;51.276;7.116;2023-02-13T03:13:05;6.20;99.90
20946;DHT22;10632;51.276;7.116;2023-02-13T03:15:49;6.20;99.90
20946;DHT22;10632;51.276;7.116;2023-02-13T03:18:43;6.30;99.90
20946;DHT22;10632;51.276;7.116;2023-02-13T03:21:37;6.20;99.90
20946;DHT22;10632;51.276;7.116;2023-02-13T03:24:32;6.20;99.90
20946;DHT22;10632;51.276;7.116;2023-02-13T03:27:10;6.20;99.90
20946;DHT22;10632;51.276;7.116;2023-02-13T03:29:45;6.20;99.90
20946;DHT22;10632;51.276;7.116;2023-02-13T03:32:41;6.20;99.90
20946;DHT22;10632;51.276;7.116;2023-02-13T03:35:20;6.20;99.90
20946;DHT22;10632;51.276;7.116;2023-02-13T03:38:17;6.20;99.90
20946;DHT22;10632;51.276;7.116;2023-02-13T03:40:49;6.20;99.90
20946;DHT22;10632;51.276;7.116;2023-02-13T03:43:39;6.20;99.90
20946;DHT22;10632;51.276;7.116;2023-02-13T03:46:09;6.20;99.90
20946;DHT22;10632;51.276;7.116;2023-02-13T03:48:38;6.20;99.90
20946;DHT22;10632;51.276;7.116;2023-02-13T03:51:27;6.20;99.90
20946;DHT22;10632;51.276;7.116;2023-02-13T03:53:59;6.20;99.90
20946;DHT22;10632;51.276;7.116;2023-02-13T03:56:29;6.20;99.90
20946;DHT22;10632;51.276;7.116;2023-02-13T03:59:21;6.20;99.90
20946;DHT22;10632;51.276;7.116;2023-02-13T04:01:55;6.20;99.90
20946;DHT22;10632;51.276;7.116;2023-02-13T04:04:31;6.20;99.90
20946;DHT22;10632;51.276;7.116;2023-02-13T04:07:02;6.20;99.90
20946;DHT22;10632;51.276;7.116;2023-02-13T04:09:36;6.20;99.90
20946;DHT22;10632;51.276;7.116;2023-02-13T04:12:11;6.30;99.90
20946;DHT22;10632;51.276;7.116;2023-02-13T04:14:44;6.20;99.90
20946;DHT22;10632;51.276;7.116;2023-02-13T04:17:18;6.20;99.90
20946;DHT22;10632;51.276;7.116;2023-02-13T04:19:47;6.20;99.90
20946;DHT22;10632;51.276;7.116;2023-02-13T04:22:14;6.20;99.90
20946;DHT22;10632;51.276;7.116;2023-02-13T04:24:43;6.20;99.90
20946;DHT22;10632;51.276;7.116;2023-02-13T04:27:12;6.20;99.90
20946;DHT22;10632;51.276;7.116;2023-02-13T04:29:40;6.30;99.90
20946;DHT22;10632;51.276;7.116;2023-02-13T04:32:08;6.20;99.90
20946;DHT22;10632;51.276;7.116;2023-02-13T04:34:36;6.20;99.90
20946;DHT22;10632;51.276;7.116;2023-02-13T04:37:02;6.30;99.90
20946;DHT22;10632;51.276;7.116;2023-02-13T04:39:30;6.30;99.90
20946;DHT22;10632;51.276;7.116;2023-02-13T04:42:00;6.30;99.90
20946;DHT22;10632;51.276;7.116;2023-02-13T04:44:27;6.30;99.90
20946;DHT22;10632;51.276;7.116;2023-02-13T04:46:58;6.30;99.90
20946;DHT22;10632;51.276;7.116;2023-02-13T04:49:25;6.30;99.90
20946;DHT22;10632;51.276;7.116;2023-02-13T04:51:56;6.30;99.90
20946;DHT22;10632;51.276;7.116;2023-02-13T04:54:23;6.30;99.90
20946;DHT22;10632;51.276;7.116;2023-02-13T04:56:53;6.30;99.90
20946;DHT22;10632;51.276;7.116;2023-02-13T04:59:21;6.30;99.90
20946;DHT22;10632;51.276;7.116;2023-02-13T05:01:48;6.30;99.90
20946;DHT22;10632;51.276;7.116;2023-02-13T05:04:15;6.30;99.90
20946;DHT22;10632;51.276;7.116;2023-02-13T05:06:42;6.30;99.90
20946;DHT22;10632;51.276;7.116;2023-02-13T05:09:11;6.30;99.90
20946;DHT22;10632;51.276;7.116;2023-02-13T05:11:38;6.30;99.90
20946;DHT22;10632;51.276;7.116;2023-02-13T05:14:05;6.30;99.90
20946;DHT22;10632;51.276;7.116;2023-02-13T05:16:34;6.30;99.90
20946;DHT22;10632;51.276;7.116;2023-02-13T05:19:01;6.30;99.90
20946;DHT22;10632;51.276;7.116;2023-02-13T05:21:28;6.30;99.90
20946;DHT22;10632;51.276;7.116;2023-02-13T05:24:12;6.30;99.90
20946;DHT22;10632;51.276;7.116;2023-02-13T05:26:42;6.30;99.90
20946;DHT22;10632;51.276;7.116;2023-02-13T05:29:12;6.30;99.90
20946;DHT22;10632;51.276;7.116;2023-02-13T05:31:51;6.30;99.90
20946;DHT22;10632;51.276;7.116;2023-02-13T05:34:18;6.30;99.90
20946;DHT22;10632;51.276;7.116;2023-02-13T05:36:46;6.30;99.90
20946;DHT22;10632;51.276;7.116;2023-02-13T05:39:13;6.30;99.90
20946;DHT22;10632;51.276;7.116;2023-02-13T05:41:41;6.20;99.90
20946;DHT22;10632;51.276;7.116;2023-02-13T05:44:14;6.20;99.90
20946;DHT22;10632;51.276;7.116;2023-02-13T05:46:42;6.20;99.90
20946;DHT22;10632;51.276;7.116;2023-02-13T05:49:12;6.10;99.90
20946;DHT22;10632;51.276;7.116;2023-02-13T05:51:40;6.20;99.90
20946;DHT22;10632;51.276;7.116;2023-02-13T05:54:07;6.20;99.90
20946;DHT22;10632;51.276;7.116;2023-02-13T05:56:34;6.10;99.90
20946;DHT22;10632;51.276;7.116;2023-02-13T05:59:01;6.10;99.90
20946;DHT22;10632;51.276;7.116;2023-02-13T06:01:31;6.20;99.90
20946;DHT22;10632;51.276;7.116;2023-02-13T06:04:01;6.10;99.90
20946;DHT22;10632;51.276;7.116;2023-02-13T06:06:31;6.30;99.90
20946;DHT22;10632;51.276;7.116;2023-02-13T06:08:58;6.40;99.90
20946;DHT22;10632;51.276;7.116;2023-02-13T06:11:25;6.40;99.90
20946;DHT22;10632;51.276;7.116;2023-02-13T06:13:52;6.30;99.90
20946;DHT22;10632;51.276;7.116;2023-02-13T06:16:19;6.30;99.90
20946;DHT22;10632;51.276;7.116;2023-02-13T06:18:49;6.30;99.90
20946;DHT22;10632;51.276;7.116;2023-02-13T06:21:16;6.20;99.90
20946;DHT22;10632;51.276;7.116;2023-02-13T06:23:44;6.20;99.90
20946;DHT22;10632;51.276;7.116;2023-02-13T06:26:14;6.10;99.90
20946;DHT22;10632;51.276;7.116;2023-02-13T06:28:43;6.10;99.90
20946;DHT22;10632;51.276;7.116;2023-02-13T06:31:14;6.10;99.90
20946;DHT22;10632;51.276;7.116;2023-02-13T06:33:41;6.00;99.90
20946;DHT22;10632;51.276;7.116;2023-02-13T06:36:08;6.00;99.90
20946;DHT22;10632;51.276;7.116;2023-02-13T06:38:35;5.90;99.90
20946;DHT22;10632;51.276;7.116;2023-02-13T06:41:11;5.90;99.90
20946;DHT22;10632;51.276;7.116;2023-02-13T06:43:42;5.90;99.90
20946;DHT22;10632;51.276;7.116;2023-02-13T06:46:09;5.80;99.90
20946;DHT22;10632;51.276;7.116;2023-02-13T06:48:36;5.80;99.90
20946;DHT22;10632;51.276;7.116;2023-02-13T06:51:03;5.80;99.90
20946;DHT22;10632;51.276;7.116;2023-02-13T06:53:30;5.80;99.90
20946;DHT22;10632;51.276;7.116;2023-02-13T06:56:03;5.90;99.90
20946;DHT22;10632;51.276;7.116;2023-02-13T06:58:32;5.80;99.90
20946;DHT22;10632;51.276;7.116;2023-02-13T07:01:02;5.70;99.90
20946;DHT22;10632;51.276;7.116;2023-02-13T07:03:29;5.70;99.90
20946;DHT22;10632;51.276;7.116;2023-02-13T07:05:58;5.70;99.90
20946;DHT22;10632;51.276;7.116;2023-02-13T07:08:25;5.70;99.90
20946;DHT22;10632;51.276;7.116;2023-02-13T07:10:54;5.70;99.90
20946;DHT22;10632;51.276;7.116;2023-02-13T07:13:21;5.70;99.90
20946;DHT22;10632;51.276;7.116;2023-02-13T07:15:49;5.70;99.90
20946;DHT22;10632;51.276;7.116;2023-02-13T07:18:16;5.70;99.90
20946;DHT22;10632;51.276;7.116;2023-02-13T07:20:43;5.80;99.90
20946;DHT22;10632;51.276;7.116;2023-02-13T07:23:10;5.70;99.90
20946;DHT22;10632;51.276;7.116;2023-02-13T07:25:37;5.60;99.90
20946;DHT22;10632;51.276;7.116;2023-02-13T07:28:05;5.70;99.90
20946;DHT22;10632;51.276;7.116;2023-02-13T07:30:33;5.70;99.90
20946;DHT22;10632;51.276;7.116;2023-02-13T07:33:02;5.70;99.90
20946;DHT22;10632;51.276;7.116;2023-02-13T07:35:30;5.70;99.90
20946;DHT22;10632;51.276;7.116;2023-02-13T07:37:58;5.80;99.90
20946;DHT22;10632;51.276;7.116;2023-02-13T07:40:26;5.80;99.90
20946;DHT22;10632;51.276;7.116;2023-02-13T07:42:53;5.80;99.90
20946;DHT22;10632;51.276;7.116;2023-02-13T07:45:20;5.80;99.90
20946;DHT22;10632;51.276;7.116;2023-02-13T07:47:47;5.90;99.90
20946;DHT22;10632;51.276;7.116;2023-02-13T07:50:16;5.90;99.90
20946;DHT22;10632;51.276;7.116;2023-02-13T07:52:43;5.80;99.90
20946;DHT22;10632;51.276;7.116;2023-02-13T07:55:10;5.80;99.90
20946;DHT22;10632;51.276;7.116;2023-02-13T07:57:37;5.90;99.90
20946;DHT22;10632;51.276;7.116;2023-02-13T08:00:05;5.90;99.90
20946;DHT22;10632;51.276;7.116;2023-02-13T08:02:32;5.90;99.90
20946;DHT22;10632;51.276;7.116;2023-02-13T08:04:59;5.90;99.90
20946;DHT22;10632;51.276;7.116;2023-02-13T08:07:28;5.90;99.90
20946;DHT22;10632;51.276;7.116;2023-02-13T08:09:57;5.90;99.90
20946;DHT22;10632;51.276;7.116;2023-02-13T08:12:41;6.00;99.90
20946;DHT22;10632;51.276;7.116;2023-02-13T08:15:09;6.00;99.90
20946;DHT22;10632;51.276;7.116;2023-02-13T08:17:37;6.00;99.90
20946;DHT22;10632;51.276;7.116;2023-02-13T08:20:05;6.10;99.90
20946;DHT22;10632;51.276;7.116;2023-02-13T08:22:35;6.10;99.90
20946;DHT22;10632;51.276;7.116;2023-02-13T08:25:03;6.20;99.90
20946;DHT22;10632;51.276;7.116;2023-02-13T08:27:30;6.20;99.90
20946;DHT22;10632;51.276;7.116;2023-02-13T08:29:58;6.30;99.90
20946;DHT22;10632;51.276;7.116;2023-02-13T08:32:26;6.30;99.90
20946;DHT22;10632;51.276;7.116;2023-02-13T08:34:53;6.30;99.90
20946;DHT22;10632;51.276;7.116;2023-02-13T08:37:20;6.40;99.90
20946;DHT22;10632;51.276;7.116;2023-02-13T08:39:48;6.50;99.90
20946;DHT22;10632;51.276;7.116;2023-02-13T08:42:15;6.50;99.90
20946;DHT22;10632;51.276;7.116;2023-02-13T08:44:41;6.60;99.90
20946;DHT22;10632;51.276;7.116;2023-02-13T08:47:09;6.60;99.90
20946;DHT22;10632;51.276;7.116;2023-02-13T08:49:36;6.60;99.90
20946;DHT22;10632;51.276;7.116;2023-02-13T08:52:05;6.70;99.90
20946;DHT22;10632;51.276;7.116;2023-02-13T08:54:35;6.80;99.90
20946;DHT22;10632;51.276;7.116;2023-02-13T08:57:04;6.90;99.90
20946;DHT22;10632;51.276;7.116;2023-02-13T08:59:31;7.00;99.90
20946;DHT22;10632;51.276;7.116;2023-02-13T09:01:57;7.10;99.90
20946;DHT22;10632;51.276;7.116;2023-02-13T09:04:24;7.20;99.90
20946;DHT22;10632;51.276;7.116;2023-02-13T09:06:52;7.40;99.90
20946;DHT22;10632;51.276;7.116;2023-02-13T09:09:19;7.40;99.90
20946;DHT22;10632;51.276;7.116;2023-02-13T09:11:46;7.50;99.90
20946;DHT22;10632;51.276;7.116;2023-02-13T09:14:16;7.60;99.90
20946;DHT22;10632;51.276;7.116;2023-02-13T09:16:43;7.70;99.90
20946;DHT22;10632;51.276;7.116;2023-02-13T09:19:10;7.80;99.90
20946;DHT22;10632;51.276;7.116;2023-02-13T09:21:37;7.90;99.90
20946;DHT22;10632;51.276;7.116;2023-02-13T09:24:06;8.00;99.90
20946;DHT22;10632;51.276;7.116;2023-02-13T09:26:33;8.10;99.90
20946;DHT22;10632;51.276;7.116;2023-02-13T09:29:00;8.20;99.90
20946;DHT22;10632;51.276;7.116;2023-02-13T09:31:29;8.30;99.90
20946;DHT22;10632;51.276;7.116;2023-02-13T09:33:55;8.40;99.90
20946;DHT22;10632;51.276;7.116;2023-02-13T09:36:23;8.50;99.90
20946;DHT22;10632;51.276;7.116;2023-02-13T09:38:52;8.60;99.90
20946;DHT22;10632;51.276;7.116;2023-02-13T09:41:22;8.70;99.90
20946;DHT22;10632;51.276;7.116;2023-02-13T09:43:52;8.80;99.90
20946;DHT22;10632;51.276;7.116;2023-02-13T09:46:21;8.90;99.90
20946;DHT22;10632;51.276;7.116;2023-02-13T09:48:54;9.00;99.90
20946;DHT22;10632;51.276;7.116;2023-02-13T09:51:23;9.10;99.90
20946;DHT22;10632;51.276;7.116;2023-02-13T09:53:53;9.10;99.90
20946;DHT22;10632;51.276;7.116;2023-02-13T09:56:36;9.20;99.90
20946;DHT22;10632;51.276;7.116;2023-02-13T09:59:15;9.20;99.90
20946;DHT22;10632;51.276;7.116;2023-02-13T10:01:46;9.30;99.90
20946;DHT22;10632;51.276;7.116;2023-02-13T10:04:26;9.40;99.90
20946;DHT22;10632;51.276;7.116;2023-02-13T10:07:06;9.50;99.90
20946;DHT22;10632;51.276;7.116;2023-02-13T10:09:39;9.60;99.90
20946;DHT22;10632;51.276;7.116;2023-02-13T10:12:21;9.70;99.90
20946;DHT22;10632;51.276;7.116;2023-02-13T10:14:57;9.80;99.90
20946;DHT22;10632;51.276;7.116;2023-02-13T10:17:33;9.90;99.90
20946;DHT22;10632;51.276;7.116;2023-02-13T10:20:04;10.10;99.90
20946;DHT22;10632;51.276;7.116;2023-02-13T10:22:36;10.20;99.90
20946;DHT22;10632;51.276;7.116;2023-02-13T10:25:07;10.20;99.90
20946;DHT22;10632;51.276;7.116;2023-02-13T10:27:36;10.40;99.90
20946;DHT22;10632;51.276;7.116;2023-02-13T10:30:07;10.50;99.90
20946;DHT22;10632;51.276;7.116;2023-02-13T10:32:46;10.50;99.90
20946;DHT22;10632;51.276;7.116;2023-02-13T10:35:22;10.60;99.90
20946;DHT22;10632;51.276;7.116;2023-02-13T10:37:53;10.60;99.90
20946;DHT22;10632;51.276;7.116;2023-02-13T10:40:20;10.70;99.90
20946;DHT22;10632;51.276;7.116;2023-02-13T10:42:57;10.70;99.90
20946;DHT22;10632;51.276;7.116;2023-02-13T10:45:39;10.80;99.90
20946;DHT22;10632;51.276;7.116;2023-02-13T10:48:24;10.90;99.90
20946;DHT22;10632;51.276;7.116;2023-02-13T10:51:03;11.00;99.90
20946;DHT22;10632;51.276;7.116;2023-02-13T10:53:45;11.00;99.90
20946;DHT22;10632;51.276;7.116;2023-02-13T10:56:29;11.00;99.90
20946;DHT22;10632;51.276;7.116;2023-02-13T10:59:05;11.10;99.90
20946;DHT22;10632;51.276;7.116;2023-02-13T11:01:36;11.00;99.90
20946;DHT22;10632;51.276;7.116;2023-02-13T11:04:07;11.00;99.90
20946;DHT22;10632;51.276;7.116;2023-02-13T11:06:39;10.90;99.90
20946;DHT22;10632;51.276;7.116;2023-02-13T11:09:07;10.90;99.90
20946;DHT22;10632;51.276;7.116;2023-02-13T11:11:39;11.00;99.90
20946;DHT22;10632;51.276;7.116;2023-02-13T11:14:12;11.00;99.90
20946;DHT22;10632;51.276;7.116;2023-02-13T11:16:46;11.10;99.90
20946;DHT22;10632;51.276;7.116;2023-02-13T11:19:17;11.20;99.90
20946;DHT22;10632;51.276;7.116;2023-02-13T11:21:46;11.20;99.90
20946;DHT22;10632;51.276;7.116;2023-02-13T11:24:18;11.20;99.90
20946;DHT22;10632;51.276;7.116;2023-02-13T11:26:50;11.30;99.90
20946;DHT22;10632;51.276;7.116;2023-02-13T11:29:21;11.40;99.90
20946;DHT22;10632;51.276;7.116;2023-02-13T11:32:02;11.50;99.90
20946;DHT22;10632;51.276;7.116;2023-02-13T11:34:31;11.50;99.90
20946;DHT22;10632;51.276;7.116;2023-02-13T11:37:19;11.60;99.90
20946;DHT22;10632;51.276;7.116;2023-02-13T11:39:47;11.60;99.90
20946;DHT22;10632;51.276;7.116;2023-02-13T11:42:16;11.60;99.90
20946;DHT22;10632;51.276;7.116;2023-02-13T11:44:48;11.60;99.90
20946;DHT22;10632;51.276;7.116;2023-02-13T11:47:16;11.70;99.90
20946;DHT22;10632;51.276;7.116;2023-02-13T11:49:55;11.70;99.90
20946;DHT22;10632;51.276;7.116;2023-02-13T11:52:25;11.90;99.90
20946;DHT22;10632;51.276;7.116;2023-02-13T11:54:57;12.40;99.90
20946;DHT22;10632;51.276;7.116;2023-02-13T11:57:29;12.80;99.90
20946;DHT22;10632;51.276;7.116;2023-02-13T11:59:57;13.00;99.90
20946;DHT22;10632;51.276;7.116;2023-02-13T12:02:25;13.00;99.90
20946;DHT22;10632;51.276;7.116;2023-02-13T12:04:54;12.80;99.90
20946;DHT22;10632;51.276;7.116;2023-02-13T12:07:40;12.80;99.90
20946;DHT22;10632;51.276;7.116;2023-02-13T12:10:17;12.70;99.90
20946;DHT22;10632;51.276;7.116;2023-02-13T12:12:52;12.70;99.90
20946;DHT22;10632;51.276;7.116;2023-02-13T12:15:21;12.70;99.90
20946;DHT22;10632;51.276;7.116;2023-02-13T12:18:04;12.60;99.90
20946;DHT22;10632;51.276;7.116;2023-02-13T12:20:40;12.70;99.90
20946;DHT22;10632;51.276;7.116;2023-02-13T12:23:19;13.00;99.90
20946;DHT22;10632;51.276;7.116;2023-02-13T12:25:55;13.70;99.90
20946;DHT22;10632;51.276;7.116;2023-02-13T12:28:31;14.60;99.90
20946;DHT22;10632;51.276;7.116;2023-02-13T12:31:32;15.30;99.90
20946;DHT22;10632;51.276;7.116;2023-02-13T12:37:41;15.30;99.90
20946;DHT22;10632;51.276;7.116;2023-02-13T12:40:27;14.70;99.90
20946;DHT22;10632;51.276;7.116;2023-02-13T12:43:12;14.90;99.90
20946;DHT22;10632;51.276;7.116;2023-02-13T12:45:48;15.60;99.90
20946;DHT22;10632;51.276;7.116;2023-02-13T12:48:27;16.60;99.90
20946;DHT22;10632;51.276;7.116;2023-02-13T12:51:06;17.30;99.90
20946;DHT22;10632;51.276;7.116;2023-02-13T12:56:50;18.10;99.40
20946;DHT22;10632;51.276;7.116;2023-02-13T12:59:29;18.50;99.50
20946;DHT22;10632;51.276;7.116;2023-02-13T13:05:13;19.00;97.20
20946;DHT22;10632;51.276;7.116;2023-02-13T13:07:56;19.20;96.60
20946;DHT22;10632;51.276;7.116;2023-02-13T13:10:37;19.20;96.10
20946;DHT22;10632;51.276;7.116;2023-02-13T13:13:16;19.20;95.00
20946;DHT22;10632;51.276;7.116;2023-02-13T13:15:52;19.30;95.30
20946;DHT22;10632;51.276;7.116;2023-02-13T13:18:34;19.40;96.70
20946;DHT22;10632;51.276;7.116;2023-02-13T13:21:17;19.50;95.80
20946;DHT22;10632;51.276;7.116;2023-02-13T13:23:52;19.80;96.10
20946;DHT22;10632;51.276;7.116;2023-02-13T13:26:25;20.00;95.70
20946;DHT22;10632;51.276;7.116;2023-02-13T13:28:58;20.00;94.80
20946;DHT22;10632;51.276;7.116;2023-02-13T13:31:27;20.00;94.10
20946;DHT22;10632;51.276;7.116;2023-02-13T13:33:59;19.90;94.20
20946;DHT22;10632;51.276;7.116;2023-02-13T13:36:36;19.90;93.70
20946;DHT22;10632;51.276;7.116;2023-02-13T13:39:13;20.00;93.30
20946;DHT22;10632;51.276;7.116;2023-02-13T13:41:46;20.00;93.50
20946;DHT22;10632;51.276;7.116;2023-02-13T13:44:28;19.90;92.40
20946;DHT22;10632;51.276;7.116;2023-02-13T13:47:01;19.90;92.50
20946;DHT22;10632;51.276;7.116;2023-02-13T13:49:39;19.80;92.10
20946;DHT22;10632;51.276;7.116;2023-02-13T13:52:22;19.50;92.40
20946;DHT22;10632;51.276;7.116;2023-02-13T13:54:50;19.30;91.90
20946;DHT22;10632;51.276;7.116;2023-02-13T13:57:19;19.10;93.10
20946;DHT22;10632;51.276;7.116;2023-02-13T14:02:46;18.70;92.90
20946;DHT22;10632;51.276;7.116;2023-02-13T14:05:26;18.60;93.60
20946;DHT22;10632;51.276;7.116;2023-02-13T14:07:55;18.30;95.30
20946;DHT22;10632;51.276;7.116;2023-02-13T14:10:57;17.90;93.80
20946;DHT22;10632;51.276;7.116;2023-02-13T14:13:29;17.40;94.70
20946;DHT22;10632;51.276;7.116;2023-02-13T14:15:57;17.10;95.40
20946;DHT22;10632;51.276;7.116;2023-02-13T14:18:25;16.80;95.50
20946;DHT22;10632;51.276;7.116;2023-02-13T14:20:54;16.50;95.90
20946;DHT22;10632;51.276;7.116;2023-02-13T14:23:31;16.20;96.50
20946;DHT22;10632;51.276;7.116;2023-02-13T14:26:19;16.00;97.40
20946;DHT22;10632;51.276;7.116;2023-02-13T14:28:57;15.80;97.40
20946;DHT22;10632;51.276;7.116;2023-02-13T14:31:28;15.70;97.60
20946;DHT22;10632;51.276;7.116;2023-02-13T14:33:58;15.50;97.50
20946;DHT22;10632;51.276;7.116;2023-02-13T14:36:27;15.40;97.20
20946;DHT22;10632;51.276;7.116;2023-02-13T14:38:59;15.30;97.00
20946;DHT22;10632;51.276;7.116;2023-02-13T14:41:57;15.10;98.00
20946;DHT22;10632;51.276;7.116;2023-02-13T14:44:28;15.10;98.60
20946;DHT22;10632;51.276;7.116;2023-02-13T14:47:00;15.00;98.50
20946;DHT22;10632;51.276;7.116;2023-02-13T14:49:29;14.90;98.90
20946;DHT22;10632;51.276;7.116;2023-02-13T14:51:58;14.80;98.90
20946;DHT22;10632;51.276;7.116;2023-02-13T14:54:32;14.80;99.30
20946;DHT22;10632;51.276;7.116;2023-02-13T14:57:05;14.80;99.60
20946;DHT22;10632;51.276;7.116;2023-02-13T14:59:38;14.70;99.20
20946;DHT22;10632;51.276;7.116;2023-02-13T15:02:16;14.60;99.10
20946;DHT22;10632;51.276;7.116;2023-02-13T15:04:46;14.60;98.40
20946;DHT22;10632;51.276;7.116;2023-02-13T15:07:16;14.60;98.60
20946;DHT22;10632;51.276;7.116;2023-02-13T15:09:47;14.50;98.80
20946;DHT22;10632;51.276;7.116;2023-02-13T15:12:30;14.40;99.20
20946;DHT22;10632;51.276;7.116;2023-02-13T15:14:57;14.40;98.90
20946;DHT22;10632;51.276;7.116;2023-02-13T15:17:29;14.40;99.20
20946;DHT22;10632;51.276;7.116;2023-02-13T15:20:03;14.40;99.50
20946;DHT22;10632;51.276;7.116;2023-02-13T15:22:36;14.30;99.30
20946;DHT22;10632;51.276;7.116;2023-02-13T15:25:05;14.20;99.70
20946;DHT22;10632;51.276;7.116;2023-02-13T15:27:37;14.10;99.50
20946;DHT22;10632;51.276;7.116;2023-02-13T15:30:18;14.10;99.40
20946;DHT22;10632;51.276;7.116;2023-02-13T15:32:53;14.00;99.70
20946;DHT22;10632;51.276;7.116;2023-02-13T15:35:23;14.00;99.60
20946;DHT22;10632;51.276;7.116;2023-02-13T15:37:50;13.90;99.50
20946;DHT22;10632;51.276;7.116;2023-02-13T15:40:23;13.90;99.50
20946;DHT22;10632;51.276;7.116;2023-02-13T15:42:50;13.90;99.30
20946;DHT22;10632;51.276;7.116;2023-02-13T15:45:18;13.90;99.70
20946;DHT22;10632;51.276;7.116;2023-02-13T15:47:51;13.80;99.70
20946;DHT22;10632;51.276;7.116;2023-02-13T15:50:26;13.80;99.70
20946;DHT22;10632;51.276;7.116;2023-02-13T15:52:54;13.80;99.50
20946;DHT22;10632;51.276;7.116;2023-02-13T15:55:23;13.80;99.40
20946;DHT22;10632;51.276;7.116;2023-02-13T15:57:52;13.80;99.50
20946;DHT22;10632;51.276;7.116;2023-02-13T16:00:23;13.70;99.40
20946;DHT22;10632;51.276;7.116;2023-02-13T16:02:53;13.70;99.70
20946;DHT22;10632;51.276;7.116;2023-02-13T16:05:21;13.60;99.80
20946;DHT22;10632;51.276;7.116;2023-02-13T16:07:49;13.60;99.70
20946;DHT22;10632;51.276;7.116;2023-02-13T16:10:23;13.50;99.80
20946;DHT22;10632;51.276;7.116;2023-02-13T16:12:51;13.50;99.90
20946;DHT22;10632;51.276;7.116;2023-02-13T16:15:25;13.50;99.90
20946;DHT22;10632;51.276;7.116;2023-02-13T16:17:55;13.40;99.90
20946;DHT22;10632;51.276;7.116;2023-02-13T16:20:24;13.30;99.90
20946;DHT22;10632;51.276;7.116;2023-02-13T16:22:54;13.30;99.90
20946;DHT22;10632;51.276;7.116;2023-02-13T16:25:25;13.20;99.90
20946;DHT22;10632;51.276;7.116;2023-02-13T16:27:55;13.10;99.90
20946;DHT22;10632;51.276;7.116;2023-02-13T16:30:32;13.10;99.90
20946;DHT22;10632;51.276;7.116;2023-02-13T16:33:22;12.90;99.90